Scratch — MKXQ6 — position and weather

sailwx.info

Track history (hours):
 
Tides and Currents Weather Stations Pressure Air Temp Water Temp Dewpoint Dewpoint Depression Visibility Wind Speed Wind Dir Waves Ship Positions

Scratch

Last reported at 2014-Sep-14 15:11 UTC. Time now 2014-Sep-18 23:43 UTC.
Position N 43°30' E 006°58'.

Length 27 m; draft 2 m.

MMSI: 235031887.

Date/timePositionNaut miles runAvg speedWind from/ knotsBaromVisibWave heightAir tempDewpointWater temp
2014-Sep-14 15:11N 43°30' E 006°58'1625.4
2014-Sep-14 14:33N 43°19' E 006°42'2 1.2
2014-Sep-14 13:17N 43°19' E 006°40'0 0.0
2014-Sep-14 11:17N 43°19' E 006°40'3 0.1
2014-Sep-13 16:15N 43°17' E 006°38'4 0.7
2014-Sep-13 11:10N 43°16' E 006°43'11 0.5
2014-Sep-12 14:34N 43°24' E 006°52'  
2014-Sep-10 09:32N 43°31' E 006°59'8 7.6
2014-Sep-10 08:32N 43°35' E 007°08'0 0.0
2014-Sep-10 07:33N 43°35' E 007°08'0 0.0
2014-Sep-10 06:27N 43°35' E 007°08'0 0.0
2014-Sep-10 05:28N 43°35' E 007°08'0 0.0
2014-Sep-10 04:29N 43°35' E 007°08'0 0.0
2014-Sep-10 03:29N 43°35' E 007°08'0 0.0
2014-Sep-10 02:30N 43°35' E 007°08'0 0.0
2014-Sep-10 01:19N 43°35' E 007°08'0 0.0
2014-Sep-10 00:31N 43°35' E 007°08'0 0.0
2014-Sep-09 23:32N 43°35' E 007°08'0 0.0
2014-Sep-09 22:33N 43°35' E 007°08'0 0.0
2014-Sep-09 21:33N 43°35' E 007°08'0 0.0
2014-Sep-09 20:28N 43°35' E 007°08'0 0.0
2014-Sep-09 19:29N 43°35' E 007°08'0 0.0
2014-Sep-09 18:29N 43°35' E 007°08'0 0.0
2014-Sep-09 17:30N 43°35' E 007°08'0 0.0
2014-Sep-09 16:31N 43°35' E 007°08'0 0.0
2014-Sep-09 15:25N 43°35' E 007°08'0 0.0
2014-Sep-09 14:32N 43°35' E 007°08'0 0.0
2014-Sep-09 13:27N 43°35' E 007°08'0 0.0
2014-Sep-09 12:33N 43°35' E 007°08'0 0.0
2014-Sep-09 11:28N 43°35' E 007°08'0 0.0
2014-Sep-09 10:29N 43°35' E 007°08'0 0.0
2014-Sep-09 09:29N 43°35' E 007°08'0 0.0
2014-Sep-09 08:30N 43°35' E 007°08'0 0.0
2014-Sep-09 07:25N 43°35' E 007°08'0 0.0
2014-Sep-09 06:31N 43°35' E 007°08'0 0.0
2014-Sep-09 05:32N 43°35' E 007°08'0 0.0
2014-Sep-09 04:33N 43°35' E 007°08'0 0.0
2014-Sep-09 03:33N 43°35' E 007°08'0 0.0
2014-Sep-09 02:22N 43°35' E 007°08'0 0.0
2014-Sep-09 01:29N 43°35' E 007°08'0 0.0
2014-Sep-09 00:23N 43°35' E 007°08'0 0.0
2014-Sep-08 23:30N 43°35' E 007°08'0 0.0
2014-Sep-08 22:31N 43°35' E 007°08'0 0.0
2014-Sep-08 21:31N 43°35' E 007°08'0 0.0
2014-Sep-08 20:26N 43°35' E 007°08'0 0.0
2014-Sep-08 19:33N 43°35' E 007°08'0 0.0
2014-Sep-08 18:33N 43°35' E 007°08'0 0.0
2014-Sep-08 17:28N 43°35' E 007°08'0 0.0
2014-Sep-08 16:29N 43°35' E 007°08'0 0.0
2014-Sep-08 15:29N 43°35' E 007°08'0 0.0
2014-Sep-08 14:30N 43°35' E 007°08'0 0.0
2014-Sep-08 13:25N 43°35' E 007°08'0 0.0
2014-Sep-08 12:31N 43°35' E 007°08'0 0.0
2014-Sep-08 11:32N 43°35' E 007°08'0 0.0
2014-Sep-08 10:33N 43°35' E 007°08'0 0.0
2014-Sep-08 09:33N 43°35' E 007°08'0 0.0
2014-Sep-08 08:28N 43°35' E 007°08'0 0.0
2014-Sep-08 07:29N 43°35' E 007°08'0 0.0
2014-Sep-08 06:30N 43°35' E 007°08'0 0.0
2014-Sep-08 05:30N 43°35' E 007°08'0 0.0
2014-Sep-08 04:31N 43°35' E 007°08'0 0.0
2014-Sep-08 03:32N 43°35' E 007°08'0 0.0
2014-Sep-08 02:32N 43°35' E 007°08'0 0.0
2014-Sep-08 01:33N 43°35' E 007°08'0 0.0
2014-Sep-08 00:22N 43°35' E 007°08'0 0.0
2014-Sep-07 23:28N 43°35' E 007°08'0 0.0
2014-Sep-07 21:30N 43°35' E 007°08'0 0.0
2014-Sep-07 20:30N 43°35' E 007°08'0 0.0
2014-Sep-07 19:31N 43°35' E 007°08'0 0.0
2014-Sep-07 18:26N 43°35' E 007°08'0 0.0
2014-Sep-07 17:32N 43°35' E 007°08'0 0.0
2014-Sep-07 16:33N 43°35' E 007°08'0 0.0
2014-Sep-07 15:28N 43°35' E 007°08'0 0.0
2014-Sep-07 14:28N 43°35' E 007°08'0 0.0
2014-Sep-07 13:29N 43°35' E 007°08'0 0.0
2014-Sep-07 12:30N 43°35' E 007°08'0 0.0
2014-Sep-07 11:30N 43°35' E 007°08'0 0.0
2014-Sep-07 10:31N 43°35' E 007°08'0 0.0
2014-Sep-07 09:20N 43°35' E 007°08'0 0.0
2014-Sep-07 08:32N 43°35' E 007°08'0 0.0
2014-Sep-07 07:33N 43°35' E 007°08'0 0.0
2014-Sep-07 06:28N 43°35' E 007°08'0 0.0
2014-Sep-07 05:28N 43°35' E 007°08'0 0.0
2014-Sep-07 04:29N 43°35' E 007°08'0 0.0
2014-Sep-07 03:30N 43°35' E 007°08'0 0.0
2014-Sep-07 02:30N 43°35' E 007°08'0 0.0
2014-Sep-07 01:31N 43°35' E 007°08'0 0.0
2014-Sep-07 00:32N 43°35' E 007°08'0 0.0
2014-Sep-06 23:32N 43°35' E 007°08'0 0.0
2014-Sep-06 22:33N 43°35' E 007°08'0 0.0
2014-Sep-06 21:22N 43°35' E 007°08'0 0.0
2014-Sep-06 20:28N 43°35' E 007°08'0 0.0
2014-Sep-06 19:29N 43°35' E 007°08'0 0.0
2014-Sep-06 18:30N 43°35' E 007°08'0 0.0
2014-Sep-06 17:30N 43°35' E 007°08'0 0.0
2014-Sep-06 16:31N 43°35' E 007°08'0 0.0
2014-Sep-06 15:26N 43°35' E 007°08'0 0.0
2014-Sep-06 14:32N 43°35' E 007°08'0 0.0
2014-Sep-06 13:33N 43°35' E 007°08'0 0.0
2014-Sep-06 12:28N 43°35' E 007°08'0 0.0
2014-Sep-06 11:28N 43°35' E 007°08'0 0.0
2014-Sep-06 10:29N 43°35' E 007°08'0 0.0
2014-Sep-06 09:24N 43°35' E 007°08'0 0.0
2014-Sep-06 08:30N 43°35' E 007°08'0 0.0
2014-Sep-06 07:31N 43°35' E 007°08'0 0.0
2014-Sep-06 06:32N 43°35' E 007°08'0 0.0
2014-Sep-06 05:32N 43°35' E 007°08'0 0.0
2014-Sep-06 04:33N 43°35' E 007°08'0 0.0
2014-Sep-06 03:22N 43°35' E 007°08'0 0.0
2014-Sep-06 02:29N 43°35' E 007°08'0 0.0
2014-Sep-06 01:29N 43°35' E 007°08'0 0.0
2014-Sep-06 00:30N 43°35' E 007°08'0 0.0
2014-Sep-05 23:31N 43°35' E 007°08'0 0.0
2014-Sep-05 22:31N 43°35' E 007°08'0 0.0
2014-Sep-05 21:32N 43°35' E 007°08'0 0.0
2014-Sep-05 20:33N 43°35' E 007°08'0 0.0
2014-Sep-05 19:33N 43°35' E 007°08'0 0.0
2014-Sep-05 18:28N 43°35' E 007°08'0 0.0
2014-Sep-05 17:29N 43°35' E 007°08'0 0.0
2014-Sep-05 16:29N 43°35' E 007°08'0 0.0
2014-Sep-05 15:30N 43°35' E 007°08'0 0.0
2014-Sep-05 14:31N 43°35' E 007°08'0 0.0
2014-Sep-05 13:31N 43°35' E 007°08'0 0.0
2014-Sep-05 12:32N 43°35' E 007°08'0 0.0
2014-Sep-05 11:33N 43°35' E 007°08'0 0.0
2014-Sep-05 10:33N 43°35' E 007°08'0 0.0
2014-Sep-05 09:28N 43°35' E 007°08'0 0.0
2014-Sep-05 08:29N 43°35' E 007°08'0 0.0
2014-Sep-05 07:23N 43°35' E 007°08'0 0.0
2014-Sep-05 06:24N 43°35' E 007°08'0 0.0
2014-Sep-05 05:31N 43°35' E 007°08'0 0.0
2014-Sep-05 04:31N 43°35' E 007°08'0 0.0
2014-Sep-05 03:32N 43°35' E 007°08'0 0.0
2014-Sep-05 02:33N 43°35' E 007°08'0 0.0
2014-Sep-05 01:33N 43°35' E 007°08'0 0.0
2014-Sep-05 00:28N 43°35' E 007°08'0 0.0
2014-Sep-04 23:29N 43°35' E 007°08'0 0.0
2014-Sep-04 22:29N 43°35' E 007°08'0 0.0
2014-Sep-04 21:30N 43°35' E 007°08'0 0.0
2014-Sep-04 20:31N 43°35' E 007°08'0 0.0
2014-Sep-04 19:31N 43°35' E 007°08'0 0.0
2014-Sep-04 18:26N 43°35' E 007°08'0 0.0
2014-Sep-04 17:27N 43°35' E 007°08'0 0.0
2014-Sep-04 16:33N 43°35' E 007°08'0 0.0
2014-Sep-04 15:22N 43°35' E 007°08'  
Track history (hours):
 
Tides and Currents Weather Stations Pressure Air Temp Water Temp Dewpoint Dewpoint Depression Visibility Wind Speed Wind Dir Waves Ship Positions

Scratch

Last reported at 2014-Sep-14 15:11 UTC. Time now 2014-Sep-18 23:43 UTC.
Position N 43°30' E 006°58'.

Length 27 m; draft 2 m.

MMSI: 235031887.

Date/timePositionNaut miles runAvg speedWind from/ knotsBaromVisibWave heightAir tempDewpointWater temp
2014-Sep-14 15:11N 43°30' E 006°58'1625.4
2014-Sep-14 14:33N 43°19' E 006°42'2 1.2
2014-Sep-14 13:17N 43°19' E 006°40'0 0.0
2014-Sep-14 11:17N 43°19' E 006°40'3 0.1
2014-Sep-13 16:15N 43°17' E 006°38'4 0.7
2014-Sep-13 11:10N 43°16' E 006°43'11 0.5
2014-Sep-12 14:34N 43°24' E 006°52'  
2014-Sep-10 09:32N 43°31' E 006°59'8 7.6
2014-Sep-10 08:32N 43°35' E 007°08'0 0.0
2014-Sep-10 07:33N 43°35' E 007°08'0 0.0
2014-Sep-10 06:27N 43°35' E 007°08'0 0.0
2014-Sep-10 05:28N 43°35' E 007°08'0 0.0
2014-Sep-10 04:29N 43°35' E 007°08'0 0.0
2014-Sep-10 03:29N 43°35' E 007°08'0 0.0
2014-Sep-10 02:30N 43°35' E 007°08'0 0.0
2014-Sep-10 01:19N 43°35' E 007°08'0 0.0
2014-Sep-10 00:31N 43°35' E 007°08'0 0.0
2014-Sep-09 23:32N 43°35' E 007°08'0 0.0
2014-Sep-09 22:33N 43°35' E 007°08'0 0.0
2014-Sep-09 21:33N 43°35' E 007°08'0 0.0
2014-Sep-09 20:28N 43°35' E 007°08'0 0.0
2014-Sep-09 19:29N 43°35' E 007°08'0 0.0
2014-Sep-09 18:29N 43°35' E 007°08'0 0.0
2014-Sep-09 17:30N 43°35' E 007°08'0 0.0
2014-Sep-09 16:31N 43°35' E 007°08'0 0.0
2014-Sep-09 15:25N 43°35' E 007°08'0 0.0
2014-Sep-09 14:32N 43°35' E 007°08'0 0.0
2014-Sep-09 13:27N 43°35' E 007°08'0 0.0
2014-Sep-09 12:33N 43°35' E 007°08'0 0.0
2014-Sep-09 11:28N 43°35' E 007°08'0 0.0
2014-Sep-09 10:29N 43°35' E 007°08'0 0.0
2014-Sep-09 09:29N 43°35' E 007°08'0 0.0
2014-Sep-09 08:30N 43°35' E 007°08'0 0.0
2014-Sep-09 07:25N 43°35' E 007°08'0 0.0
2014-Sep-09 06:31N 43°35' E 007°08'0 0.0
2014-Sep-09 05:32N 43°35' E 007°08'0 0.0
2014-Sep-09 04:33N 43°35' E 007°08'0 0.0
2014-Sep-09 03:33N 43°35' E 007°08'0 0.0
2014-Sep-09 02:22N 43°35' E 007°08'0 0.0
2014-Sep-09 01:29N 43°35' E 007°08'0 0.0
2014-Sep-09 00:23N 43°35' E 007°08'0 0.0
2014-Sep-08 23:30N 43°35' E 007°08'0 0.0
2014-Sep-08 22:31N 43°35' E 007°08'0 0.0
2014-Sep-08 21:31N 43°35' E 007°08'0 0.0
2014-Sep-08 20:26N 43°35' E 007°08'0 0.0
2014-Sep-08 19:33N 43°35' E 007°08'0 0.0
2014-Sep-08 18:33N 43°35' E 007°08'0 0.0
2014-Sep-08 17:28N 43°35' E 007°08'0 0.0
2014-Sep-08 16:29N 43°35' E 007°08'0 0.0
2014-Sep-08 15:29N 43°35' E 007°08'0 0.0
2014-Sep-08 14:30N 43°35' E 007°08'0 0.0
2014-Sep-08 13:25N 43°35' E 007°08'0 0.0
2014-Sep-08 12:31N 43°35' E 007°08'0 0.0
2014-Sep-08 11:32N 43°35' E 007°08'0 0.0
2014-Sep-08 10:33N 43°35' E 007°08'0 0.0
2014-Sep-08 09:33N 43°35' E 007°08'0 0.0
2014-Sep-08 08:28N 43°35' E 007°08'0 0.0
2014-Sep-08 07:29N 43°35' E 007°08'0 0.0
2014-Sep-08 06:30N 43°35' E 007°08'0 0.0
2014-Sep-08 05:30N 43°35' E 007°08'0 0.0
2014-Sep-08 04:31N 43°35' E 007°08'0 0.0
2014-Sep-08 03:32N 43°35' E 007°08'0 0.0
2014-Sep-08 02:32N 43°35' E 007°08'0 0.0
2014-Sep-08 01:33N 43°35' E 007°08'0 0.0
2014-Sep-08 00:22N 43°35' E 007°08'0 0.0
2014-Sep-07 23:28N 43°35' E 007°08'0 0.0
2014-Sep-07 21:30N 43°35' E 007°08'0 0.0
2014-Sep-07 20:30N 43°35' E 007°08'0 0.0
2014-Sep-07 19:31N 43°35' E 007°08'0 0.0
2014-Sep-07 18:26N 43°35' E 007°08'0 0.0
2014-Sep-07 17:32N 43°35' E 007°08'0 0.0
2014-Sep-07 16:33N 43°35' E 007°08'0 0.0
2014-Sep-07 15:28N 43°35' E 007°08'0 0.0
2014-Sep-07 14:28N 43°35' E 007°08'0 0.0
2014-Sep-07 13:29N 43°35' E 007°08'0 0.0
2014-Sep-07 12:30N 43°35' E 007°08'0 0.0
2014-Sep-07 11:30N 43°35' E 007°08'0 0.0
2014-Sep-07 10:31N 43°35' E 007°08'0 0.0
2014-Sep-07 09:20N 43°35' E 007°08'0 0.0
2014-Sep-07 08:32N 43°35' E 007°08'0 0.0
2014-Sep-07 07:33N 43°35' E 007°08'0 0.0
2014-Sep-07 06:28N 43°35' E 007°08'0 0.0
2014-Sep-07 05:28N 43°35' E 007°08'0 0.0
2014-Sep-07 04:29N 43°35' E 007°08'0 0.0
2014-Sep-07 03:30N 43°35' E 007°08'0 0.0
2014-Sep-07 02:30N 43°35' E 007°08'0 0.0
2014-Sep-07 01:31N 43°35' E 007°08'0 0.0
2014-Sep-07 00:32N 43°35' E 007°08'0 0.0
2014-Sep-06 23:32N 43°35' E 007°08'0 0.0
2014-Sep-06 22:33N 43°35' E 007°08'0 0.0
2014-Sep-06 21:22N 43°35' E 007°08'0 0.0
2014-Sep-06 20:28N 43°35' E 007°08'0 0.0
2014-Sep-06 19:29N 43°35' E 007°08'0 0.0
2014-Sep-06 18:30N 43°35' E 007°08'0 0.0
2014-Sep-06 17:30N 43°35' E 007°08'0 0.0
2014-Sep-06 16:31N 43°35' E 007°08'0 0.0
2014-Sep-06 15:26N 43°35' E 007°08'0 0.0
2014-Sep-06 14:32N 43°35' E 007°08'0 0.0
2014-Sep-06 13:33N 43°35' E 007°08'0 0.0
2014-Sep-06 12:28N 43°35' E 007°08'0 0.0
2014-Sep-06 11:28N 43°35' E 007°08'0 0.0
2014-Sep-06 10:29N 43°35' E 007°08'0 0.0
2014-Sep-06 09:24N 43°35' E 007°08'0 0.0
2014-Sep-06 08:30N 43°35' E 007°08'0 0.0
2014-Sep-06 07:31N 43°35' E 007°08'0 0.0
2014-Sep-06 06:32N 43°35' E 007°08'0 0.0
2014-Sep-06 05:32N 43°35' E 007°08'0 0.0
2014-Sep-06 04:33N 43°35' E 007°08'0 0.0
2014-Sep-06 03:22N 43°35' E 007°08'0 0.0
2014-Sep-06 02:29N 43°35' E 007°08'0 0.0
2014-Sep-06 01:29N 43°35' E 007°08'0 0.0
2014-Sep-06 00:30N 43°35' E 007°08'0 0.0
2014-Sep-05 23:31N 43°35' E 007°08'0 0.0
2014-Sep-05 22:31N 43°35' E 007°08'0 0.0
2014-Sep-05 21:32N 43°35' E 007°08'0 0.0
2014-Sep-05 20:33N 43°35' E 007°08'0 0.0
2014-Sep-05 19:33N 43°35' E 007°08'0 0.0
2014-Sep-05 18:28N 43°35' E 007°08'0 0.0
2014-Sep-05 17:29N 43°35' E 007°08'0 0.0
2014-Sep-05 16:29N 43°35' E 007°08'0 0.0
2014-Sep-05 15:30N 43°35' E 007°08'0 0.0
2014-Sep-05 14:31N 43°35' E 007°08'0 0.0
2014-Sep-05 13:31N 43°35' E 007°08'0 0.0
2014-Sep-05 12:32N 43°35' E 007°08'0 0.0
2014-Sep-05 11:33N 43°35' E 007°08'0 0.0
2014-Sep-05 10:33N 43°35' E 007°08'0 0.0
2014-Sep-05 09:28N 43°35' E 007°08'0 0.0
2014-Sep-05 08:29N 43°35' E 007°08'0 0.0
2014-Sep-05 07:23N 43°35' E 007°08'0 0.0
2014-Sep-05 06:24N 43°35' E 007°08'0 0.0
2014-Sep-05 05:31N 43°35' E 007°08'0 0.0
2014-Sep-05 04:31N 43°35' E 007°08'0 0.0
2014-Sep-05 03:32N 43°35' E 007°08'0 0.0
2014-Sep-05 02:33N 43°35' E 007°08'0 0.0
2014-Sep-05 01:33N 43°35' E 007°08'0 0.0
2014-Sep-05 00:28N 43°35' E 007°08'0 0.0
2014-Sep-04 23:29N 43°35' E 007°08'0 0.0
2014-Sep-04 22:29N 43°35' E 007°08'0 0.0
2014-Sep-04 21:30N 43°35' E 007°08'0 0.0
2014-Sep-04 20:31N 43°35' E 007°08'0 0.0
2014-Sep-04 19:31N 43°35' E 007°08'0 0.0
2014-Sep-04 18:26N 43°35' E 007°08'0 0.0
2014-Sep-04 17:27N 43°35' E 007°08'0 0.0
2014-Sep-04 16:33N 43°35' E 007°08'0 0.0
2014-Sep-04 15:22N 43°35' E 007°08'  

Dump ship's entire track history